Time;durP1;ratioP1;P1;durP2;ratioP2;P2;SDS_P1;SDS_P2;PMS_P1;PMS_P2;Temp;Humidity;BMP_temperature;BMP_pressure;BME280_temperature;BME280_humidity;BME280_pressure;Samples;Min_cycle;Max_cycle;Signal;HPM_P1;HPM_P2
2023/04/11 00:01:37;;;;;;;2.40;1.10;;;10.90;99.90;;;;;;5074936;28;20458;-76
2023/04/11 00:04:04;;;;;;;1.53;1.43;;;10.90;99.90;;;;;;5073301;28;20508;-76
2023/04/11 00:06:32;;;;;;;2.47;0.90;;;10.90;99.90;;;;;;5078192;28;20497;-75
2023/04/11 00:08:59;;;;;;;5.93;2.07;;;10.90;99.90;;;;;;5066938;28;20454;-76
2023/04/11 00:11:31;;;;;;;1.73;1.07;;;10.90;99.90;;;;;;5068853;28;20461;-77
2023/04/11 00:13:58;;;;;;;1.40;1.10;;;11.00;99.90;;;;;;5049399;28;20559;-76
2023/04/11 00:16:25;;;;;;;1.10;0.90;;;11.10;99.90;;;;;;5074355;28;21004;-76
2023/04/11 00:18:52;;;;;;;1.60;0.90;;;11.10;99.90;;;;;;5089735;28;20469;-76
2023/04/11 00:21:20;;;;;;;5.70;1.83;;;11.20;99.90;;;;;;5076410;28;20473;-76
2023/04/11 00:23:48;;;;;;;1.10;0.90;;;11.20;99.90;;;;;;5079691;28;20577;-76
2023/04/11 00:26:15;;;;;;;2.60;1.30;;;11.20;99.90;;;;;;5089907;28;20518;-77
2023/04/11 00:28:44;;;;;;;12.77;1.57;;;11.20;99.90;;;;;;5070454;28;20537;-76
2023/04/11 00:31:12;;;;;;;1.83;1.20;;;11.20;99.90;;;;;;5028977;28;20511;-76
2023/04/11 00:33:39;;;;;;;2.33;1.63;;;11.10;99.90;;;;;;5064828;28;20461;-76
2023/04/11 00:36:07;;;;;;;2.67;1.30;;;11.10;99.90;;;;;;5074251;28;20453;-75
2023/04/11 00:38:35;;;;;;;1.27;0.83;;;11.10;99.90;;;;;;5061247;28;20440;-76
2023/04/11 00:41:06;;;;;;;2.23;0.90;;;11.10;99.90;;;;;;5064858;28;20462;-76
2023/04/11 00:43:33;;;;;;;2.43;1.00;;;11.10;99.90;;;;;;5064200;28;21274;-75
2023/04/11 00:46:01;;;;;;;2.60;1.40;;;11.10;99.90;;;;;;5069597;28;20458;-75
2023/04/11 00:48:28;;;;;;;4.00;0.87;;;11.20;99.90;;;;;;5062398;28;20484;-76
2023/04/11 00:50:56;;;;;;;1.87;1.13;;;11.20;99.90;;;;;;5070150;28;20491;-75
2023/04/11 00:53:23;;;;;;;2.90;1.20;;;11.20;99.90;;;;;;5075174;28;20666;-76
2023/04/11 00:55:50;;;;;;;2.77;1.33;;;11.20;99.90;;;;;;5064028;28;20430;-76
2023/04/11 00:58:20;;;;;;;1.70;1.40;;;11.20;99.90;;;;;;5063982;28;20991;-76
2023/04/11 01:00:48;;;;;;;2.50;1.67;;;11.20;99.90;;;;;;5043043;28;20645;-75
2023/04/11 01:03:16;;;;;;;4.27;1.50;;;11.10;99.90;;;;;;5058672;28;20883;-76
2023/04/11 01:05:43;;;;;;;1.30;1.00;;;11.20;99.90;;;;;;5068926;28;20431;-75
2023/04/11 01:08:11;;;;;;;5.23;1.63;;;11.20;99.90;;;;;;5064524;28;20824;-76
2023/04/11 01:10:41;;;;;;;2.90;1.10;;;11.10;99.90;;;;;;5064589;28;21165;-76
2023/04/11 01:13:09;;;;;;;1.57;1.30;;;11.10;99.90;;;;;;5072906;28;20918;-76
2023/04/11 01:15:38;;;;;;;2.17;1.57;;;11.10;99.90;;;;;;5066120;28;20486;-76
2023/04/11 01:18:06;;;;;;;4.50;1.30;;;11.10;99.90;;;;;;5046130;28;20820;-76
2023/04/11 01:20:33;;;;;;;5.70;1.27;;;11.00;99.90;;;;;;5079474;28;20884;-76
2023/04/11 01:23:03;;;;;;;3.50;1.40;;;11.00;99.90;;;;;;5048441;28;20465;-76
2023/04/11 01:25:34;;;;;;;4.53;1.50;;;11.00;99.90;;;;;;5077831;28;20453;-76
2023/04/11 01:28:02;;;;;;;3.30;1.30;;;11.00;99.90;;;;;;5061339;28;20428;-76
2023/04/11 01:30:29;;;;;;;1.30;1.00;;;11.00;99.90;;;;;;5061374;28;20545;-76
2023/04/11 01:32:56;;;;;;;1.87;1.67;;;11.00;99.90;;;;;;5072160;28;20456;-76
2023/04/11 01:35:24;;;;;;;5.73;2.37;;;10.90;99.90;;;;;;5067455;28;20484;-76
2023/04/11 01:37:51;;;;;;;3.17;1.70;;;10.90;99.90;;;;;;5066843;28;21055;-75
2023/04/11 01:40:20;;;;;;;4.70;1.30;;;10.90;99.90;;;;;;5061362;28;20478;-76
2023/04/11 01:42:49;;;;;;;2.33;1.83;;;11.00;99.90;;;;;;5069238;28;20692;-75
2023/04/11 01:45:16;;;;;;;5.83;2.23;;;11.10;99.90;;;;;;5049562;28;20489;-75
2023/04/11 01:47:44;;;;;;;6.80;1.60;;;11.00;99.90;;;;;;5036595;28;20939;-76
2023/04/11 01:50:12;;;;;;;6.50;1.97;;;10.90;99.90;;;;;;5060845;28;20433;-75
2023/04/11 01:52:39;;;;;;;3.77;1.83;;;10.80;99.90;;;;;;5071757;28;20463;-75
2023/04/11 01:55:07;;;;;;;4.77;1.37;;;10.90;99.90;;;;;;5067411;28;20457;-74
2023/04/11 01:57:34;;;;;;;3.70;2.30;;;11.00;99.90;;;;;;5064283;28;20440;-74
2023/04/11 02:00:05;;;;;;;3.47;2.00;;;11.00;99.90;;;;;;5067277;28;21388;-75
2023/04/11 02:02:31;;;;;;;3.53;2.63;;;11.00;99.90;;;;;;5051927;28;20477;-75
2023/04/11 02:04:58;;;;;;;3.87;2.67;;;11.10;99.90;;;;;;5066397;28;20551;-76
2023/04/11 02:07:26;;;;;;;2.53;2.13;;;11.20;99.90;;;;;;5060402;28;20489;-75
2023/04/11 02:09:53;;;;;;;4.50;2.47;;;11.10;99.90;;;;;;5042869;28;20433;-75
2023/04/11 02:12:22;;;;;;;8.83;2.50;;;11.10;99.90;;;;;;5059508;28;20556;-75
2023/04/11 02:14:50;;;;;;;4.40;2.60;;;10.90;99.90;;;;;;5069306;28;20503;-75
2023/04/11 02:17:21;;;;;;;3.20;2.37;;;10.80;99.90;;;;;;5029218;28;20574;-75
2023/04/11 02:19:48;;;;;;;9.80;2.83;;;10.70;99.90;;;;;;5066063;28;20489;-75
2023/04/11 02:22:15;;;;;;;1.60;1.30;;;10.70;99.90;;;;;;5071920;28;20560;-75
2023/04/11 02:24:43;;;;;;;12.20;2.73;;;10.70;99.90;;;;;;5071469;28;21056;-75
2023/04/11 02:27:14;;;;;;;6.80;2.93;;;10.70;99.90;;;;;;5059701;28;20462;-75
2023/04/11 02:29:41;;;;;;;3.70;2.13;;;10.70;99.90;;;;;;5061542;28;20731;-76
2023/04/11 02:32:08;;;;;;;4.67;2.63;;;10.80;99.90;;;;;;5068697;28;21076;-76
2023/04/11 02:34:37;;;;;;;3.47;2.33;;;10.80;99.90;;;;;;5073732;28;20428;-75
2023/04/11 02:37:04;;;;;;;5.63;4.60;;;10.90;99.90;;;;;;5054699;28;20462;-76
2023/04/11 02:39:32;;;;;;;4.63;2.60;;;10.90;99.90;;;;;;5064296;28;20459;-76
2023/04/11 02:41:59;;;;;;;4.37;3.33;;;10.90;99.90;;;;;;5066232;28;20420;-77
2023/04/11 02:44:28;;;;;;;6.90;3.30;;;10.90;99.90;;;;;;5069761;28;20480;-77
2023/04/11 02:46:55;;;;;;;8.63;2.60;;;11.00;99.90;;;;;;5073639;28;20459;-76
2023/04/11 02:49:22;;;;;;;4.87;2.57;;;10.90;99.90;;;;;;5061946;28;20839;-76
2023/04/11 02:51:51;;;;;;;3.60;3.30;;;10.80;99.90;;;;;;5070467;28;20464;-76
2023/04/11 02:54:18;;;;;;;5.40;2.50;;;10.80;99.90;;;;;;5070147;28;20473;-77
2023/04/11 02:56:45;;;;;;;8.80;3.20;;;10.60;99.90;;;;;;5069885;28;20939;-76
2023/04/11 02:59:12;;;;;;;6.17;2.57;;;10.50;99.90;;;;;;5068292;28;20965;-76
2023/04/11 03:01:40;;;;;;;2.40;1.63;;;10.50;99.90;;;;;;5070722;28;23421;-76
2023/04/11 03:04:07;;;;;;;7.33;2.60;;;10.60;99.90;;;;;;5074613;28;20509;-76
2023/04/11 03:06:34;;;;;;;4.70;2.50;;;10.50;99.90;;;;;;5071352;28;20466;-76
2023/04/11 03:09:04;;;;;;;12.27;2.23;;;10.50;99.90;;;;;;5065305;28;20461;-75
2023/04/11 03:11:31;;;;;;;5.63;2.60;;;10.50;99.90;;;;;;5064884;28;20432;-75
2023/04/11 03:13:58;;;;;;;6.27;2.23;;;10.60;99.90;;;;;;5065536;28;20816;-76
2023/04/11 03:16:26;;;;;;;1.40;1.23;;;10.60;99.90;;;;;;5073914;28;20473;-75
2023/04/11 03:18:53;;;;;;;9.37;2.90;;;10.70;99.90;;;;;;5080637;28;20457;-76
2023/04/11 03:21:21;;;;;;;6.57;3.43;;;10.70;99.90;;;;;;5083670;28;20510;-75
2023/04/11 03:23:48;;;;;;;10.43;2.50;;;10.80;99.90;;;;;;5085819;28;20509;-76
2023/04/11 03:26:17;;;;;;;5.37;2.90;;;10.90;99.90;;;;;;5067167;28;20458;-75
2023/04/11 03:28:44;;;;;;;5.23;1.60;;;10.80;99.90;;;;;;5076198;28;20454;-75
2023/04/11 03:31:13;;;;;;;16.43;2.97;;;10.80;99.90;;;;;;5064447;28;20431;-75
2023/04/11 03:33:39;;;;;;;6.90;2.33;;;10.80;99.90;;;;;;5069359;28;20831;-74
2023/04/11 03:36:07;;;;;;;17.43;5.30;;;10.80;99.90;;;;;;5046421;28;20449;-77
2023/04/11 03:38:34;;;;;;;6.63;3.53;;;10.60;99.90;;;;;;5059087;28;20520;-75
2023/04/11 03:41:04;;;;;;;15.23;2.73;;;10.60;99.90;;;;;;5064384;28;20470;-75
2023/04/11 03:43:32;;;;;;;6.10;2.97;;;10.70;99.90;;;;;;5070663;28;20927;-76
2023/04/11 03:45:59;;;;;;;3.87;3.23;;;10.70;99.90;;;;;;5077201;28;21045;-75
2023/04/11 03:48:29;;;;;;;16.50;3.47;;;10.60;99.90;;;;;;5066662;28;21003;-76
2023/04/11 03:50:59;;;;;;;10.00;5.73;;;10.60;99.90;;;;;;5074978;28;20553;-76
2023/04/11 03:53:28;;;;;;;4.63;2.67;;;10.60;99.90;;;;;;5074810;28;20576;-76
2023/04/11 03:55:55;;;;;;;7.97;4.20;;;10.50;99.90;;;;;;5070909;28;20457;-76
2023/04/11 03:58:22;;;;;;;9.00;2.93;;;10.40;99.90;;;;;;5067198;28;20828;-78
2023/04/11 04:00:51;;;;;;;4.90;4.10;;;10.40;99.90;;;;;;5062726;28;21068;-78
2023/04/11 04:03:18;;;;;;;7.57;3.63;;;10.40;99.90;;;;;;5064577;28;20584;-76
2023/04/11 04:05:45;;;;;;;13.30;2.40;;;10.40;99.90;;;;;;5074038;28;20584;-76
2023/04/11 04:08:14;;;;;;;5.00;1.70;;;10.40;99.90;;;;;;5048258;28;20670;-75
2023/04/11 04:10:41;;;;;;;6.60;3.43;;;10.40;99.90;;;;;;5048323;28;20417;-76
2023/04/11 04:13:08;;;;;;;8.63;2.73;;;10.40;99.90;;;;;;5058434;28;20581;-76
2023/04/11 04:15:35;;;;;;;7.40;3.13;;;10.40;99.90;;;;;;5067056;28;20460;-77
2023/04/11 04:18:03;;;;;;;9.30;3.30;;;10.50;99.90;;;;;;5076269;28;20537;-77
2023/04/11 04:20:30;;;;;;;9.30;2.87;;;10.50;99.90;;;;;;5060171;28;20456;-77
2023/04/11 04:22:58;;;;;;;7.57;3.50;;;10.50;99.90;;;;;;5079329;28;20481;-77
2023/04/11 04:25:26;;;;;;;12.93;3.27;;;10.50;99.90;;;;;;5065115;28;20449;-76
2023/04/11 04:27:56;;;;;;;8.70;3.03;;;10.60;99.90;;;;;;5068252;28;20551;-74
2023/04/11 04:30:30;;;;;;;4.60;2.60;;;10.50;99.90;;;;;;5071999;28;20429;-77
2023/04/11 04:32:59;;;;;;;6.70;3.23;;;10.40;99.90;;;;;;5068881;28;20484;-77
2023/04/11 04:35:27;;;;;;;16.00;4.23;;;10.30;99.90;;;;;;5071226;28;20480;-77
2023/04/11 04:37:55;;;;;;;7.80;3.23;;;10.30;99.90;;;;;;5068279;28;20474;-77
2023/04/11 04:40:21;;;;;;;5.93;2.90;;;10.30;99.90;;;;;;5055071;28;20448;-76
2023/04/11 04:42:56;;;;;;;7.07;3.00;;;10.20;99.90;;;;;;5068873;28;21165;-77
2023/04/11 04:45:24;;;;;;;12.47;2.80;;;10.20;99.90;;;;;;5065287;28;20435;-75
2023/04/11 04:47:51;;;;;;;3.40;2.03;;;10.20;99.90;;;;;;5024120;28;20433;-77
2023/04/11 04:50:19;;;;;;;11.20;3.10;;;10.10;99.90;;;;;;5067937;28;20516;-75
2023/04/11 04:52:47;;;;;;;3.90;2.90;;;10.00;99.90;;;;;;5067434;28;20457;-75
2023/04/11 04:55:19;;;;;;;8.70;3.70;;;10.00;99.90;;;;;;5074423;28;20552;-75
2023/04/11 04:57:46;;;;;;;7.60;3.13;;;10.10;99.90;;;;;;5084171;28;20453;-75
2023/04/11 05:00:14;;;;;;;6.60;2.40;;;10.00;99.90;;;;;;5083586;28;20581;-75
2023/04/11 05:02:44;;;;;;;4.80;2.70;;;10.00;99.90;;;;;;5040956;28;20569;-74
2023/04/11 05:05:12;;;;;;;6.23;2.50;;;9.90;99.90;;;;;;5085987;28;20408;-74
2023/04/11 05:07:39;;;;;;;8.13;2.83;;;9.70;99.90;;;;;;5086246;28;20874;-74
2023/04/11 05:10:09;;;;;;;2.70;2.50;;;9.70;99.90;;;;;;5079399;28;20463;-75
2023/04/11 05:12:36;;;;;;;2.93;2.00;;;9.80;99.90;;;;;;5073636;28;20578;-75
2023/04/11 05:15:03;;;;;;;4.80;2.10;;;9.80;99.90;;;;;;5073597;28;20432;-75
2023/04/11 05:17:30;;;;;;;1.07;0.90;;;9.80;99.90;;;;;;5091995;28;20439;-76
2023/04/11 05:19:58;;;;;;;2.90;1.40;;;9.90;99.90;;;;;;5080160;28;21433;-75
2023/04/11 05:22:26;;;;;;;2.87;1.67;;;10.00;99.90;;;;;;5065879;28;20455;-74
2023/04/11 05:24:52;;;;;;;5.50;1.83;;;9.80;99.90;;;;;;5069104;28;20483;-75
2023/04/11 05:27:21;;;;;;;1.40;1.23;;;9.30;99.90;;;;;;5075926;28;20796;-75
2023/04/11 05:29:50;;;;;;;2.80;1.63;;;9.00;99.90;;;;;;5050473;28;20473;-76
2023/04/11 05:32:17;;;;;;;4.63;1.50;;;9.00;99.90;;;;;;5010646;28;20531;-75
2023/04/11 05:34:55;;;;;;;3.80;1.47;;;8.90;99.90;;;;;;5069660;28;20453;-75
2023/04/11 05:37:22;;;;;;;6.33;2.27;;;9.00;99.90;;;;;;5068608;28;20511;-75
2023/04/11 05:39:51;;;;;;;2.00;1.80;;;9.10;99.90;;;;;;5068409;28;20439;-75
2023/04/11 05:42:18;;;;;;;3.23;1.90;;;9.20;99.90;;;;;;5059787;28;20578;-76
2023/04/11 05:44:47;;;;;;;3.77;2.73;;;9.20;99.90;;;;;;5042152;28;20913;-75
2023/04/11 05:47:15;;;;;;;2.53;2.27;;;9.30;99.90;;;;;;5060247;28;20448;-75
2023/04/11 05:49:42;;;;;;;2.47;2.27;;;9.40;99.90;;;;;;5073467;28;20856;-75
2023/04/11 05:52:09;;;;;;;7.80;2.83;;;9.50;99.90;;;;;;5060964;28;20498;-75
2023/04/11 05:54:38;;;;;;;4.27;2.00;;;9.50;99.90;;;;;;5045400;28;20890;-75
2023/04/11 05:57:06;;;;;;;4.07;1.43;;;9.50;99.90;;;;;;5062886;28;20429;-75
2023/04/11 05:59:35;;;;;;;3.47;1.97;;;9.60;99.90;;;;;;5074250;28;20444;-76
2023/04/11 06:02:03;;;;;;;5.87;1.90;;;9.70;99.90;;;;;;5058872;28;20484;-75
2023/04/11 06:04:32;;;;;;;8.77;2.47;;;9.80;99.90;;;;;;5047331;28;21049;-76
2023/04/11 06:06:59;;;;;;;9.33;2.63;;;9.90;99.90;;;;;;5067026;28;20564;-76
2023/04/11 06:09:26;;;;;;;4.00;2.30;;;10.40;99.90;;;;;;5052096;28;20462;-75
2023/04/11 06:11:55;;;;;;;3.00;2.33;;;10.60;99.90;;;;;;5065698;28;21108;-75
2023/04/11 06:14:24;;;;;;;8.13;1.83;;;10.60;99.90;;;;;;5060110;28;20534;-76
2023/04/11 06:16:51;;;;;;;2.80;1.33;;;10.00;99.90;;;;;;5041961;28;21193;-74
2023/04/11 06:19:22;;;;;;;2.33;2.00;;;9.50;99.90;;;;;;5079492;28;20553;-74
2023/04/11 06:21:50;;;;;;;5.00;2.33;;;9.10;99.90;;;;;;5078921;28;20580;-75
2023/04/11 06:24:18;;;;;;;2.73;2.10;;;8.80;99.90;;;;;;5065951;28;20543;-76
2023/04/11 06:26:45;;;;;;;11.13;2.07;;;8.70;99.90;;;;;;5076790;28;20460;-75
2023/04/11 06:29:12;;;;;;;5.20;2.67;;;8.70;99.90;;;;;;5070232;28;20857;-75
2023/04/11 06:31:41;;;;;;;7.23;1.93;;;8.80;99.90;;;;;;5063966;28;20448;-75
2023/04/11 06:34:08;;;;;;;4.10;2.00;;;8.70;99.90;;;;;;5032670;28;20448;-75
2023/04/11 06:36:36;;;;;;;8.30;2.63;;;8.70;99.90;;;;;;5072613;28;20593;-76
2023/04/11 06:39:04;;;;;;;7.83;2.00;;;8.80;99.90;;;;;;5066332;28;21161;-75
2023/04/11 06:41:32;;;;;;;7.77;2.37;;;9.10;99.90;;;;;;5069318;28;20583;-76
2023/04/11 06:43:59;;;;;;;9.57;1.73;;;9.90;99.90;;;;;;5073910;28;20582;-75
2023/04/11 06:46:27;;;;;;;6.30;2.03;;;10.70;99.90;;;;;;5063928;28;20473;-76
2023/04/11 06:48:54;;;;;;;1.20;1.10;;;11.30;99.90;;;;;;5074088;28;20489;-75
2023/04/11 06:51:22;;;;;;;7.50;1.80;;;11.80;99.90;;;;;;5076694;28;20453;-75
2023/04/11 06:53:50;;;;;;;7.13;2.40;;;12.30;99.90;;;;;;5082477;28;20568;-75
2023/04/11 06:56:17;;;;;;;3.87;2.00;;;12.50;99.90;;;;;;5084053;28;20460;-76
2023/04/11 06:58:44;;;;;;;4.33;2.30;;;12.60;99.90;;;;;;5085908;28;20908;-75
2023/04/11 07:01:13;;;;;;;5.70;2.10;;;12.60;99.90;;;;;;5084807;28;20533;-75
2023/04/11 07:03:40;;;;;;;4.20;1.73;;;12.70;99.90;;;;;;5074929;28;21990;-75
2023/04/11 07:06:07;;;;;;;2.60;2.00;;;12.40;99.90;;;;;;5051535;28;20545;-73
2023/04/11 07:08:35;;;;;;;2.53;1.53;;;12.20;99.90;;;;;;5078660;28;21237;-74
2023/04/11 07:11:04;;;;;;;15.37;2.57;;;11.90;99.90;;;;;;5075083;28;20928;-74
2023/04/11 07:13:31;;;;;;;9.93;1.97;;;11.60;99.90;;;;;;5081148;28;20479;-74
2023/04/11 07:15:58;;;;;;;3.97;2.20;;;11.80;99.90;;;;;;5091155;28;20526;-76
2023/04/11 07:18:26;;;;;;;2.90;2.30;;;11.50;99.90;;;;;;5023665;28;20556;-76
2023/04/11 07:20:54;;;;;;;2.60;1.53;;;11.60;99.90;;;;;;5064176;28;20478;-75
2023/04/11 07:23:21;;;;;;;3.63;1.60;;;11.60;99.90;;;;;;5072037;28;20921;-74
2023/04/11 07:25:49;;;;;;;4.63;1.77;;;11.30;99.90;;;;;;5083123;28;20443;-75
2023/04/11 07:28:17;;;;;;;9.57;1.97;;;11.70;99.90;;;;;;5080760;28;20915;-75
2023/04/11 07:30:45;;;;;;;2.23;1.30;;;11.80;99.90;;;;;;5071689;28;20443;-77
2023/04/11 07:33:13;;;;;;;3.77;1.60;;;11.70;99.90;;;;;;5043724;28;20452;-75
2023/04/11 07:35:41;;;;;;;6.93;2.47;;;12.40;99.90;;;;;;5055713;28;20466;-74
2023/04/11 07:38:09;;;;;;;4.27;1.53;;;12.20;99.90;;;;;;5068188;28;20821;-77
2023/04/11 07:40:35;;;;;;;5.33;1.87;;;12.60;99.90;;;;;;5070210;28;20548;-73
2023/04/11 07:43:08;;;;;;;5.67;2.00;;;13.30;99.90;;;;;;5073781;28;21009;-75
2023/04/11 07:45:38;;;;;;;3.53;1.60;;;12.80;99.90;;;;;;5054035;28;20465;-76
2023/04/11 07:48:05;;;;;;;2.23;1.33;;;12.60;99.90;;;;;;5052859;28;20887;-76
2023/04/11 07:50:33;;;;;;;5.83;1.50;;;12.10;99.90;;;;;;5019563;28;20506;-75
2023/04/11 07:53:01;;;;;;;6.97;1.57;;;12.20;99.90;;;;;;5067812;28;20481;-75
2023/04/11 07:55:28;;;;;;;2.90;1.50;;;12.50;99.90;;;;;;5075936;28;20541;-75
2023/04/11 07:57:55;;;;;;;4.70;1.70;;;12.60;99.90;;;;;;5080729;28;20473;-76
2023/04/11 08:00:23;;;;;;;1.60;1.50;;;12.60;99.90;;;;;;5062929;28;21013;-76
2023/04/11 08:02:52;;;;;;;7.00;1.80;;;12.40;99.90;;;;;;5083656;28;20460;-75
2023/04/11 08:05:19;;;;;;;2.17;1.50;;;11.80;99.90;;;;;;5080900;28;20527;-76
2023/04/11 08:07:46;;;;;;;4.93;2.13;;;12.30;99.90;;;;;;5084145;28;20594;-75
2023/04/11 08:10:12;;;;;;;1.40;1.30;;;13.20;99.90;;;;;;5081956;28;20540;-75
2023/04/11 08:12:42;;;;;;;3.67;1.93;;;13.20;99.90;;;;;;5092536;28;20901;-76
2023/04/11 08:15:09;;;;;;;3.33;1.70;;;13.40;99.90;;;;;;5060506;28;20453;-75
2023/04/11 08:17:37;;;;;;;3.00;1.53;;;13.40;99.90;;;;;;5066603;28;20508;-76
2023/04/11 08:20:10;;;;;;;5.23;1.47;;;13.50;99.90;;;;;;5070493;28;20422;-75
2023/04/11 08:22:38;;;;;;;15.30;2.20;;;13.60;99.90;;;;;;5091029;28;20997;-75
2023/04/11 08:25:07;;;;;;;7.30;2.10;;;14.10;99.90;;;;;;5045930;28;20461;-75
2023/04/11 08:27:34;;;;;;;2.20;1.57;;;13.40;99.90;;;;;;5029857;28;20447;-75
2023/04/11 08:30:02;;;;;;;1.70;1.57;;;12.80;99.90;;;;;;5085602;28;20454;-76
2023/04/11 08:32:32;;;;;;;1.67;1.33;;;12.70;99.90;;;;;;5086891;28;20474;-76
2023/04/11 08:34:59;;;;;;;8.73;2.30;;;12.90;99.90;;;;;;5081404;28;20724;-75
2023/04/11 08:37:28;;;;;;;7.53;2.30;;;12.70;99.90;;;;;;5081357;28;21221;-75
2023/04/11 08:39:55;;;;;;;4.90;2.27;;;13.10;99.90;;;;;;5071550;28;20461;-76
2023/04/11 08:42:24;;;;;;;4.97;2.27;;;13.00;99.90;;;;;;5080550;28;20480;-75
2023/04/11 08:44:56;;;;;;;3.70;1.50;;;13.20;99.90;;;;;;5087133;28;20514;-74
2023/04/11 08:47:24;;;;;;;6.10;1.90;;;13.90;99.90;;;;;;5074251;28;20458;-76
2023/04/11 08:49:52;;;;;;;6.07;1.93;;;14.70;99.90;;;;;;5084887;28;21019;-75
2023/04/11 08:52:20;;;;;;;4.60;2.37;;;15.40;99.90;;;;;;5083580;28;20542;-75
2023/04/11 08:54:53;;;;;;;4.37;2.20;;;15.00;99.90;;;;;;5083078;28;20934;-75
2023/04/11 08:57:26;;;;;;;3.00;1.70;;;14.70;99.90;;;;;;5086547;28;20454;-75
2023/04/11 08:59:54;;;;;;;3.53;1.50;;;14.30;99.90;;;;;;5084038;28;20461;-76
2023/04/11 09:02:24;;;;;;;3.60;2.30;;;15.00;99.90;;;;;;5081687;28;20504;-76
2023/04/11 09:04:51;;;;;;;2.73;1.60;;;14.90;99.90;;;;;;5081852;28;20885;-75
2023/04/11 09:07:18;;;;;;;2.27;1.37;;;15.00;99.90;;;;;;5083163;28;20476;-76
2023/04/11 09:09:46;;;;;;;4.53;2.30;;;15.60;99.90;;;;;;5063469;28;20548;-76
2023/04/11 09:12:15;;;;;;;5.33;1.63;;;16.00;99.90;;;;;;5082364;28;20457;-76
2023/04/11 09:14:42;;;;;;;6.80;2.10;;;16.50;99.90;;;;;;5076799;28;21032;-76
2023/04/11 09:17:12;;;;;;;3.73;1.27;;;16.50;99.90;;;;;;5085594;28;20484;-76
2023/04/11 09:19:41;;;;;;;2.43;1.83;;;16.50;99.90;;;;;;5079012;28;20485;-76
2023/04/11 09:22:08;;;;;;;7.10;2.60;;;16.50;99.90;;;;;;5083406;28;20477;-76
2023/04/11 09:24:36;;;;;;;1.90;1.50;;;16.10;99.90;;;;;;5074294;28;20937;-76
2023/04/11 09:27:11;;;;;;;5.97;2.03;;;15.60;99.90;;;;;;5080670;28;20457;-75
2023/04/11 09:29:41;;;;;;;2.40;1.87;;;16.40;99.90;;;;;;5098669;28;21101;-75
2023/04/11 09:32:26;;;;;;;14.27;2.77;;;16.60;99.90;;;;;;5082986;28;20453;-76
2023/04/11 09:35:08;;;;;;;2.43;1.87;;;16.10;99.90;;;;;;5046793;28;21004;-76
2023/04/11 09:37:50;;;;;;;6.10;2.20;;;16.40;99.90;;;;;;5073220;28;20458;-76
2023/04/11 09:40:19;;;;;;;6.00;1.90;;;15.90;99.90;;;;;;5088881;28;20439;-77
2023/04/11 09:42:48;;;;;;;4.50;1.40;;;15.20;99.90;;;;;;5068528;28;20485;-76
2023/04/11 09:45:21;;;;;;;4.70;2.30;;;15.50;99.90;;;;;;5056898;28;20462;-75
2023/04/11 09:47:50;;;;;;;3.83;2.10;;;14.80;99.90;;;;;;5074113;28;21114;-76
2023/04/11 09:50:20;;;;;;;2.77;1.83;;;14.80;99.90;;;;;;5057137;28;20676;-76
2023/04/11 09:52:47;;;;;;;4.00;2.50;;;14.30;99.90;;;;;;5064348;28;20474;-75
2023/04/11 09:55:17;;;;;;;2.70;1.40;;;14.30;99.90;;;;;;5062018;28;20473;-75
2023/04/11 09:57:46;;;;;;;3.20;1.57;;;14.60;99.90;;;;;;5075198;28;20521;-76
2023/04/11 10:00:15;;;;;;;2.03;1.50;;;15.20;99.90;;;;;;5073848;28;20523;-75
2023/04/11 10:02:45;;;;;;;3.13;1.77;;;15.10;99.70;;;;;;5069102;28;20588;-76
2023/04/11 10:05:14;;;;;;;2.17;1.93;;;15.40;99.80;;;;;;5077913;28;21178;-76
2023/04/11 10:07:52;;;;;;;2.70;2.40;;;15.30;99.30;;;;;;5027624;28;20446;-76
2023/04/11 10:10:21;;;;;;;5.67;2.03;;;14.60;99.20;;;;;;5067109;28;20919;-75
2023/04/11 10:12:50;;;;;;;3.43;1.73;;;15.40;99.70;;;;;;5069276;28;20506;-76
2023/04/11 10:15:18;;;;;;;2.67;1.70;;;16.30;97.60;;;;;;5064326;28;20781;-76
2023/04/11 10:18:09;;;;;;;7.30;1.60;;;16.60;96.70;;;;;;5067558;28;20981;-76
2023/04/11 10:20:47;;;;;;;3.30;1.80;;;15.50;97.50;;;;;;5065321;28;20961;-75
2023/04/11 10:23:15;;;;;;;2.83;1.23;;;15.20;98.70;;;;;;5039712;28;20922;-75
2023/04/11 10:25:55;;;;;;;3.67;1.63;;;15.20;97.20;;;;;;5071613;28;20576;-76
2023/04/11 10:28:34;;;;;;;2.80;1.40;;;15.20;98.20;;;;;;5083819;28;20536;-77
2023/04/11 10:31:07;;;;;;;5.10;1.50;;;15.70;97.90;;;;;;5071901;28;20461;-77
2023/04/11 10:33:37;;;;;;;2.77;2.07;;;16.70;96.20;;;;;;5069407;28;20495;-77
2023/04/11 10:36:08;;;;;;;2.50;1.17;;;17.40;93.90;;;;;;5074977;28;20507;-74
2023/04/11 10:38:49;;;;;;;5.27;1.80;;;17.60;92.30;;;;;;5066417;28;20823;-75
2023/04/11 10:41:30;;;;;;;2.70;1.40;;;18.00;92.20;;;;;;5067771;28;20488;-74
2023/04/11 10:44:16;;;;;;;4.33;1.57;;;17.70;91.30;;;;;;5067910;28;21009;-74
2023/04/11 10:46:49;;;;;;;1.87;1.53;;;17.40;90.70;;;;;;5083749;28;20961;-74
2023/04/11 10:49:37;;;;;;;5.30;1.80;;;16.70;91.20;;;;;;5072523;28;20458;-75
2023/04/11 10:52:26;;;;;;;5.20;1.53;;;16.80;91.40;;;;;;5072861;28;20446;-74
2023/04/11 10:54:54;;;;;;;2.17;1.33;;;16.80;90.30;;;;;;5088844;28;20465;-75
2023/04/11 10:57:21;;;;;;;7.43;2.20;;;16.40;91.50;;;;;;5077795;28;20661;-76
2023/04/11 11:00:14;;;;;;;5.17;1.90;;;16.20;91.50;;;;;;5084263;28;20538;-76
2023/04/11 11:02:41;;;;;;;3.90;2.10;;;16.20;92.60;;;;;;5082887;28;20478;-77
2023/04/11 11:05:18;;;;;;;6.80;2.27;;;15.60;93.40;;;;;;5078991;28;20583;-76
2023/04/11 11:07:53;;;;;;;2.83;1.47;;;15.30;93.60;;;;;;5072528;28;20902;-76
2023/04/11 11:10:37;;;;;;;2.43;1.67;;;15.20;93.40;;;;;;5083874;28;20474;-76
2023/04/11 11:13:06;;;;;;;3.77;1.10;;;14.80;93.30;;;;;;5071575;28;20980;-75
2023/04/11 11:15:36;;;;;;;6.40;2.30;;;14.30;93.70;;;;;;5067497;28;20552;-76
2023/04/11 11:18:06;;;;;;;3.10;2.00;;;13.50;95.20;;;;;;5078148;28;20503;-75
2023/04/11 11:20:37;;;;;;;2.60;1.63;;;12.80;99.90;;;;;;5071867;28;20443;-76
2023/04/11 11:23:07;;;;;;;2.30;1.53;;;12.40;99.90;;;;;;5065882;28;20489;-75
2023/04/11 11:25:34;;;;;;;5.00;1.40;;;12.10;99.90;;;;;;5062093;28;20474;-76
2023/04/11 11:28:03;;;;;;;5.30;1.90;;;12.10;99.90;;;;;;5082827;28;20541;-77
2023/04/11 11:30:30;;;;;;;1.47;1.00;;;12.00;99.90;;;;;;5064983;28;20528;-79
2023/04/11 11:32:58;;;;;;;1.77;1.53;;;12.10;99.90;;;;;;5074414;28;21064;-76
2023/04/11 11:35:25;;;;;;;2.33;1.43;;;11.80;99.90;;;;;;5071253;28;20475;-76
2023/04/11 11:37:55;;;;;;;2.10;1.43;;;11.40;99.90;;;;;;5073413;28;20544;-76
2023/04/11 11:40:22;;;;;;;4.37;3.07;;;12.60;99.90;;;;;;5070668;28;20429;-76
2023/04/11 11:42:51;;;;;;;1.67;1.50;;;14.50;99.90;;;;;;5070975;28;20497;-76
2023/04/11 11:45:25;;;;;;;5.63;2.47;;;16.10;99.90;;;;;;5078483;28;20488;-76
2023/04/11 11:47:53;;;;;;;5.90;2.30;;;18.00;99.90;;;;;;5071132;28;20519;-76
2023/04/11 11:50:28;;;;;;;4.60;1.30;;;19.20;99.90;;;;;;5073647;28;20449;-76
2023/04/11 11:53:12;;;;;;;4.13;1.50;;;19.70;99.90;;;;;;5079389;28;20626;-76
2023/04/11 11:55:42;;;;;;;7.00;2.00;;;20.00;99.90;;;;;;5078136;28;20465;-77
2023/04/11 11:58:09;;;;;;;10.43;1.97;;;20.40;99.90;;;;;;5071925;28;20515;-76
2023/04/11 12:00:38;;;;;;;2.33;1.70;;;20.80;99.90;;;;;;5079130;28;20514;-75
2023/04/11 12:03:06;;;;;;;3.87;1.50;;;19.30;99.90;;;;;;5076188;28;21307;-75
2023/04/11 12:05:33;;;;;;;3.53;1.40;;;18.20;99.90;;;;;;5077940;28;20458;-75
2023/04/11 12:08:04;;;;;;;13.27;2.93;;;18.20;99.90;;;;;;5082265;28;20533;-76
2023/04/11 12:10:39;;;;;;;3.23;1.87;;;17.70;99.90;;;;;;5084439;28;20523;-76
2023/04/11 12:13:14;;;;;;;5.37;1.70;;;17.10;99.90;;;;;;5085152;28;20497;-75
2023/04/11 12:15:47;;;;;;;6.47;2.10;;;16.30;99.90;;;;;;5084624;28;20464;-75
2023/04/11 12:18:15;;;;;;;6.30;3.00;;;15.70;99.90;;;;;;5079288;28;20515;-76
2023/04/11 12:20:45;;;;;;;10.43;2.13;;;16.10;99.90;;;;;;5075598;28;20461;-76
2023/04/11 12:23:14;;;;;;;6.13;1.70;;;17.20;99.40;;;;;;5072250;28;20478;-76
2023/04/11 12:25:42;;;;;;;3.43;1.70;;;18.50;98.40;;;;;;5076043;28;20994;-76
2023/04/11 12:28:09;;;;;;;4.90;1.77;;;19.60;94.70;;;;;;5083658;28;20549;-77
2023/04/11 12:30:37;;;;;;;3.83;1.90;;;20.10;92.80;;;;;;5044817;28;20551;-77
2023/04/11 12:33:04;;;;;;;3.00;1.93;;;20.60;94.80;;;;;;5073495;28;20478;-75
2023/04/11 12:35:35;;;;;;;6.17;2.00;;;21.10;91.20;;;;;;5070229;28;20467;-77
2023/04/11 12:38:05;;;;;;;9.47;1.77;;;20.60;92.40;;;;;;5012187;28;20490;-75
2023/04/11 12:40:33;;;;;;;3.17;1.40;;;20.40;88.40;;;;;;5035400;28;20858;-77
2023/04/11 12:43:04;;;;;;;4.53;2.13;;;19.80;90.40;;;;;;5068742;28;20577;-77
2023/04/11 12:45:32;;;;;;;4.50;1.80;;;18.60;91.00;;;;;;5051946;28;20443;-78
2023/04/11 12:47:59;;;;;;;9.63;2.00;;;17.30;92.40;;;;;;5073515;28;20508;-77
2023/04/11 12:50:31;;;;;;;2.50;1.60;;;16.20;95.30;;;;;;5031767;28;20439;-77
2023/04/11 12:52:58;;;;;;;3.60;1.80;;;15.80;95.90;;;;;;5069489;28;20556;-76
2023/04/11 12:55:27;;;;;;;5.90;1.93;;;15.70;97.10;;;;;;5082639;28;20486;-78
2023/04/11 12:57:55;;;;;;;12.27;2.37;;;16.90;97.30;;;;;;5090203;28;21261;-78